createdAt,value
2022-11-29T00:00:32.281Z,31.38
2022-11-29T00:03:39.766Z,30.13
2022-11-29T00:06:47.870Z,29.85
2022-11-29T00:09:55.593Z,32.05
2022-11-29T00:13:03.211Z,33.55
2022-11-29T00:16:12.791Z,28.77
2022-11-29T00:19:19.507Z,33.00
2022-11-29T00:22:27.418Z,30.77
2022-11-29T00:25:34.480Z,32.63
2022-11-29T00:28:41.255Z,36.15
2022-11-29T00:31:48.140Z,34.88
2022-11-29T00:34:57.225Z,34.58
2022-11-29T00:38:05.992Z,26.75
2022-11-29T00:41:14.233Z,27.13
2022-11-29T00:44:21.376Z,27.50
2022-11-29T00:47:28.061Z,30.58
2022-11-29T00:50:34.830Z,30.42
2022-11-29T00:53:41.824Z,26.45
2022-11-29T00:56:48.455Z,26.80
2022-11-29T00:59:55.255Z,24.00
2022-11-29T01:03:03.264Z,26.20
2022-11-29T01:06:12.575Z,33.00
2022-11-29T01:09:20.774Z,23.08
2022-11-29T01:12:27.223Z,22.75
2022-11-29T01:15:35.004Z,22.80
2022-11-29T01:18:41.798Z,29.77
2022-11-29T01:21:48.873Z,21.38
2022-11-29T01:24:56.455Z,24.60
2022-11-29T01:28:03.479Z,25.75
2022-11-29T01:31:13.866Z,33.25
2022-11-29T01:34:20.825Z,26.98
2022-11-29T01:37:29.830Z,25.92
2022-11-29T01:40:36.276Z,27.55
2022-11-29T01:44:09.462Z,25.88
2022-11-29T01:47:18.297Z,21.48
2022-11-29T01:50:26.775Z,29.77
2022-11-29T01:53:34.233Z,22.88
2022-11-29T01:56:42.410Z,25.52
2022-11-29T01:59:56.518Z,24.23
2022-11-29T02:03:15.884Z,20.45
2022-11-29T02:06:23.836Z,30.38
2022-11-29T02:09:31.335Z,22.88
2022-11-29T02:13:09.799Z,23.02
2022-11-29T02:16:26.033Z,25.85
2022-11-29T02:20:06.872Z,24.77
2022-11-29T02:23:50.416Z,28.13
2022-11-29T02:27:44.094Z,20.75
2022-11-29T02:31:10.404Z,25.20
2022-11-29T02:34:46.188Z,22.08
2022-11-29T02:38:15.090Z,22.73
2022-11-29T02:41:27.718Z,22.80
2022-11-29T02:45:13.481Z,19.90
2022-11-29T02:48:48.263Z,17.17
2022-11-29T02:52:06.141Z,16.52
2022-11-29T02:55:36.079Z,21.27
2022-11-29T02:59:13.737Z,16.98
2022-11-29T03:02:28.613Z,17.45
2022-11-29T03:05:54.060Z,18.20
2022-11-29T03:09:34.943Z,25.08
2022-11-29T03:12:50.177Z,18.63
2022-11-29T03:16:09.857Z,19.98
2022-11-29T03:19:51.161Z,20.52
2022-11-29T03:23:17.112Z,22.73
2022-11-29T03:26:41.280Z,18.25
2022-11-29T03:30:01.283Z,20.73
2022-11-29T03:33:49.775Z,19.10
2022-11-29T03:37:00.215Z,24.00
2022-11-29T03:40:20.310Z,20.08
2022-11-29T03:43:50.863Z,18.33
2022-11-29T03:47:09.205Z,19.10
2022-11-29T03:50:22.450Z,19.98
2022-11-29T03:53:38.161Z,14.85
2022-11-29T03:56:44.888Z,17.73
2022-11-29T04:00:02.939Z,18.95
2022-11-29T04:03:52.220Z,17.27
2022-11-29T04:07:06.737Z,15.52
2022-11-29T04:10:42.354Z,14.73
2022-11-29T04:14:10.016Z,16.80
2022-11-29T04:17:28.515Z,14.65
2022-11-29T04:20:56.684Z,14.90
2022-11-29T04:24:12.572Z,12.90
2022-11-29T04:27:38.211Z,14.07
2022-11-29T04:31:15.729Z,17.15
2022-11-29T04:34:48.431Z,16.17
2022-11-29T04:41:44.450Z,14.63
2022-11-29T04:44:56.474Z,12.93
2022-11-29T04:48:12.297Z,12.48
2022-11-29T04:51:51.865Z,12.00
2022-11-29T04:55:49.774Z,12.38
2022-11-29T04:59:22.490Z,11.35
2022-11-29T05:02:49.156Z,15.68
2022-11-29T05:06:18.384Z,14.88
2022-11-29T05:10:01.152Z,18.38
2022-11-29T05:13:31.594Z,14.52
2022-11-29T05:17:01.783Z,16.77
2022-11-29T05:20:30.308Z,18.40
2022-11-29T05:24:11.603Z,18.42
2022-11-29T05:27:35.845Z,15.98
2022-11-29T05:31:04.102Z,14.93
2022-11-29T05:34:34.543Z,15.75
2022-11-29T05:38:26.386Z,19.83
2022-11-29T05:42:12.945Z,16.90
2022-11-29T05:45:39.412Z,15.48
2022-11-29T05:48:58.135Z,15.13
2022-11-29T05:52:22.449Z,11.68
2022-11-29T05:55:45.412Z,12.50
2022-11-29T05:59:03.326Z,13.73
2022-11-29T06:02:27.496Z,15.48
2022-11-29T06:06:08.701Z,13.18
2022-11-29T06:09:20.943Z,12.63
2022-11-29T06:12:31.415Z,13.35
2022-11-29T06:16:20.073Z,9.60
2022-11-29T06:19:57.477Z,11.40
2022-11-29T06:23:11.087Z,10.18
2022-11-29T06:26:51.090Z,10.82
2022-11-29T06:30:17.794Z,10.48
2022-11-29T06:33:32.245Z,11.80
2022-11-29T06:37:03.140Z,13.75
2022-11-29T06:41:02.413Z,12.35
2022-11-29T06:44:11.914Z,12.80
2022-11-29T06:47:51.015Z,11.82
2022-11-29T06:51:11.455Z,9.48
2022-11-29T06:54:33.168Z,15.10
2022-11-29T06:58:03.511Z,14.40
2022-11-29T07:01:27.653Z,14.68
2022-11-29T07:04:45.392Z,14.00
2022-11-29T07:07:55.853Z,13.25
2022-11-29T07:11:01.881Z,17.27
2022-11-29T07:14:07.426Z,14.05
2022-11-29T07:17:37.359Z,14.90
2022-11-29T07:21:03.305Z,13.82
2022-11-29T07:24:14.765Z,14.60
2022-11-29T07:27:29.115Z,12.82
2022-11-29T07:30:46.604Z,13.82
2022-11-29T07:34:31.534Z,19.83
2022-11-29T07:37:58.020Z,12.48
2022-11-29T07:41:47.062Z,16.52
2022-11-29T07:45:28.186Z,11.85
2022-11-29T07:48:33.692Z,12.00
2022-11-29T07:51:38.930Z,11.27
2022-11-29T07:54:44.846Z,14.23
2022-11-29T07:57:51.509Z,15.35
2022-11-29T08:00:58.188Z,15.27
2022-11-29T08:04:05.039Z,13.07
2022-11-29T08:07:11.592Z,12.60
2022-11-29T08:10:17.328Z,14.43
2022-11-29T08:13:23.609Z,17.45
2022-11-29T08:16:30.585Z,15.02
2022-11-29T08:19:36.130Z,12.05
2022-11-29T08:22:42.151Z,12.27
2022-11-29T08:25:49.015Z,11.05
2022-11-29T08:28:54.274Z,13.20
2022-11-29T08:31:59.508Z,16.92
2022-11-29T08:35:06.733Z,13.07
2022-11-29T08:38:12.488Z,10.13
2022-11-29T08:41:18.904Z,11.70
2022-11-29T08:44:25.469Z,9.00
2022-11-29T08:47:36.732Z,13.55
2022-11-29T08:50:42.394Z,13.05
2022-11-29T08:53:51.843Z,14.95
2022-11-29T08:57:37.842Z,10.82
2022-11-29T09:00:24.276Z,11.77
2022-11-29T09:03:48.289Z,12.98
2022-11-29T09:06:53.758Z,13.05
2022-11-29T09:09:59.585Z,10.52
2022-11-29T09:13:04.782Z,8.90
2022-11-29T09:16:13.417Z,10.88
2022-11-29T09:19:19.496Z,12.18
2022-11-29T09:22:25.130Z,8.70
2022-11-29T09:25:31.752Z,10.85
2022-11-29T09:28:38.458Z,8.85
2022-11-29T09:31:47.102Z,10.65
2022-11-29T09:34:53.022Z,9.52
2022-11-29T09:37:58.827Z,9.57
2022-11-29T09:41:28.845Z,10.00
2022-11-29T09:44:40.126Z,9.30
2022-11-29T09:48:23.185Z,10.98
2022-11-29T09:51:38.637Z,11.52
2022-11-29T09:54:54.449Z,9.23
2022-11-29T09:58:04.200Z,10.05
2022-11-29T10:01:33.699Z,8.00
2022-11-29T10:04:44.614Z,8.73
2022-11-29T10:08:09.095Z,9.02
2022-11-29T10:11:40.125Z,8.57
2022-11-29T10:15:03.855Z,10.10
2022-11-29T10:18:29.534Z,9.48
2022-11-29T10:21:39.003Z,8.55
2022-11-29T10:24:52.761Z,12.07
2022-11-29T10:27:58.453Z,10.85
2022-11-29T10:31:43.152Z,9.07
2022-11-29T10:34:50.699Z,10.20
2022-11-29T10:41:27.748Z,12.95
2022-11-29T10:44:34.656Z,10.88
2022-11-29T10:47:40.254Z,10.77
2022-11-29T10:50:49.635Z,14.27
2022-11-29T10:53:57.130Z,16.42
2022-11-29T10:57:04.562Z,9.73
2022-11-29T11:00:12.212Z,11.48
2022-11-29T11:03:59.351Z,9.27
2022-11-29T11:07:07.370Z,12.88
2022-11-29T11:10:31.327Z,9.50
2022-11-29T11:13:39.643Z,8.48
2022-11-29T11:16:45.570Z,8.23
2022-11-29T11:20:06.510Z,6.95
2022-11-29T11:23:31.561Z,8.98
2022-11-29T11:26:45.489Z,7.88
2022-11-29T11:29:52.985Z,9.73
2022-11-29T11:33:25.720Z,7.80
2022-11-29T11:36:32.479Z,5.93
2022-11-29T11:39:39.713Z,9.10
2022-11-29T11:42:48.092Z,10.27
2022-11-29T11:45:55.843Z,7.68
2022-11-29T11:49:01.733Z,7.82
2022-11-29T11:52:23.099Z,9.57
2022-11-29T11:55:47.792Z,10.02
2022-11-29T11:58:57.846Z,8.50
2022-11-29T12:02:27.076Z,9.00
2022-11-29T12:05:35.792Z,5.75
2022-11-29T12:08:45.948Z,8.85
2022-11-29T12:12:16.463Z,6.82
2022-11-29T12:15:41.147Z,9.50
2022-11-29T12:18:52.575Z,8.88
2022-11-29T12:22:05.188Z,9.70
2022-11-29T12:25:19.773Z,9.13
2022-11-29T12:28:40.006Z,9.10
2022-11-29T12:31:55.667Z,7.25
2022-11-29T12:35:19.610Z,9.30
2022-11-29T12:39:04.457Z,10.95
2022-11-29T12:42:26.533Z,14.00
2022-11-29T12:45:48.082Z,11.23
2022-11-29T12:49:17.188Z,5.60
2022-11-29T12:52:51.946Z,10.25
2022-11-29T12:56:28.379Z,10.38
2022-11-29T13:00:07.517Z,8.30
2022-11-29T13:03:28.317Z,9.30
2022-11-29T13:06:56.242Z,7.00
2022-11-29T13:10:25.123Z,8.27
2022-11-29T13:14:41.030Z,11.13
2022-11-29T13:17:54.290Z,9.50
2022-11-29T13:21:11.999Z,7.78
2022-11-29T13:24:25.895Z,7.82
2022-11-29T13:27:42.653Z,6.00
2022-11-29T13:30:49.226Z,8.52
2022-11-29T13:34:25.312Z,6.38
2022-11-29T13:37:49.405Z,9.73
2022-11-29T13:41:44.052Z,6.35
2022-11-29T13:44:58.794Z,9.13
2022-11-29T13:48:29.099Z,17.00
2022-11-29T13:51:37.923Z,7.37
2022-11-29T13:55:06.319Z,8.65
2022-11-29T13:58:34.457Z,7.75
2022-11-29T14:01:59.842Z,6.38
2022-11-29T14:05:08.219Z,7.10
2022-11-29T14:08:54.600Z,8.95
2022-11-29T14:12:07.071Z,9.27
2022-11-29T14:15:32.552Z,8.85
2022-11-29T14:18:38.530Z,10.02
2022-11-29T14:22:03.271Z,9.52
2022-11-29T14:25:50.675Z,16.40
2022-11-29T14:28:53.156Z,17.15
2022-11-29T14:32:00.208Z,20.83
2022-11-29T14:35:38.414Z,14.02
2022-11-29T14:39:07.847Z,28.88
2022-11-29T14:42:31.766Z,24.42
2022-11-29T14:45:37.534Z,18.52
2022-11-29T14:49:01.536Z,14.73
2022-11-29T14:52:15.063Z,24.60
2022-11-29T14:55:30.065Z,20.25
2022-11-29T14:58:35.996Z,22.80
2022-11-29T15:01:46.142Z,16.50
2022-11-29T15:04:55.185Z,18.38
2022-11-29T15:08:35.286Z,18.45
2022-11-29T15:11:56.995Z,17.63
2022-11-29T15:15:30.141Z,15.05
2022-11-29T15:19:13.568Z,15.73
2022-11-29T15:22:22.655Z,19.13
2022-11-29T15:25:32.220Z,23.38
2022-11-29T15:28:38.231Z,18.23
2022-11-29T15:31:45.067Z,19.92
2022-11-29T15:34:53.921Z,18.15
2022-11-29T15:38:00.274Z,18.67
2022-11-29T15:41:06.302Z,16.55
2022-11-29T15:44:22.426Z,18.13
2022-11-29T15:47:28.710Z,19.52
2022-11-29T15:50:35.441Z,16.25
2022-11-29T15:54:19.625Z,19.83
2022-11-29T15:57:31.009Z,21.25
2022-11-29T16:00:37.244Z,16.98
2022-11-29T16:03:46.094Z,20.38
2022-11-29T16:06:52.420Z,15.27
2022-11-29T16:10:15.347Z,17.92
2022-11-29T16:13:26.591Z,18.70
2022-11-29T16:16:35.920Z,16.48
2022-11-29T16:19:43.555Z,16.88
2022-11-29T16:23:13.335Z,20.33
2022-11-29T16:26:41.796Z,19.10
2022-11-29T16:29:49.056Z,18.08
2022-11-29T16:33:03.983Z,24.00
2022-11-29T16:36:18.169Z,24.08
2022-11-29T16:39:25.970Z,24.08
2022-11-29T16:42:34.899Z,20.80
2022-11-29T16:45:41.907Z,17.05
2022-11-29T16:48:49.570Z,20.13
2022-11-29T16:51:55.962Z,17.02
2022-11-29T16:55:02.522Z,23.55
2022-11-29T16:58:11.911Z,19.90
2022-11-29T17:01:25.058Z,23.05
2022-11-29T17:04:31.495Z,23.48
2022-11-29T17:07:40.063Z,24.58
2022-11-29T17:10:46.207Z,21.52
2022-11-29T17:13:52.984Z,21.80
2022-11-29T17:17:03.342Z,23.40
2022-11-29T17:20:10.920Z,22.52
2022-11-29T17:23:17.971Z,18.63
2022-11-29T17:26:25.136Z,19.63
2022-11-29T17:29:31.445Z,21.63
2022-11-29T17:32:39.256Z,23.83
2022-11-29T17:35:46.357Z,25.15
2022-11-29T17:38:53.586Z,30.42
2022-11-29T17:42:00.991Z,19.88
2022-11-29T17:45:08.284Z,19.77
2022-11-29T17:48:16.124Z,21.75
2022-11-29T17:54:54.022Z,20.65
2022-11-29T17:58:00.875Z,18.52
2022-11-29T18:01:10.928Z,21.13
2022-11-29T18:04:18.637Z,22.42
2022-11-29T18:07:26.085Z,20.60
2022-11-29T18:10:34.816Z,25.70
2022-11-29T18:13:42.640Z,20.20
2022-11-29T18:16:51.612Z,21.10
2022-11-29T18:19:59.882Z,29.90
2022-11-29T18:23:08.196Z,22.10
2022-11-29T18:26:20.387Z,24.27
2022-11-29T18:29:30.458Z,26.20
2022-11-29T18:32:44.799Z,24.90
2022-11-29T18:35:53.183Z,21.33
2022-11-29T18:39:03.204Z,22.15
2022-11-29T18:42:11.173Z,26.45
2022-11-29T18:45:18.417Z,30.63
2022-11-29T18:48:25.395Z,24.77
2022-11-29T18:51:33.973Z,26.75
2022-11-29T18:54:42.303Z,26.42
2022-11-29T18:57:53.745Z,31.67
2022-11-29T19:01:07.188Z,27.10
2022-11-29T19:04:21.093Z,32.47
2022-11-29T19:07:30.207Z,26.88
2022-11-29T19:10:39.783Z,26.80
2022-11-29T19:13:49.296Z,31.58
2022-11-29T19:16:57.272Z,30.50
2022-11-29T19:20:06.013Z,51.13
2022-11-29T19:23:14.197Z,30.30
2022-11-29T19:26:23.687Z,33.30
2022-11-29T19:29:36.715Z,29.58
2022-11-29T19:32:47.893Z,28.05
2022-11-29T19:35:56.940Z,29.02
2022-11-29T19:39:06.586Z,27.27
2022-11-29T19:42:14.725Z,32.13
2022-11-29T19:45:22.575Z,32.75
2022-11-29T19:48:31.078Z,30.55
2022-11-29T19:51:40.398Z,25.05
2022-11-29T19:54:48.950Z,31.33
2022-11-29T19:57:58.351Z,30.83
2022-11-29T20:01:10.420Z,31.42
2022-11-29T20:04:20.460Z,30.02
2022-11-29T20:07:29.733Z,30.70
2022-11-29T20:10:38.270Z,28.77
2022-11-29T20:13:48.787Z,29.55
2022-11-29T20:16:56.870Z,33.22
2022-11-29T20:20:06.663Z,36.72
2022-11-29T20:23:16.142Z,29.90
2022-11-29T20:26:25.648Z,25.80
2022-11-29T20:29:34.748Z,27.85
2022-11-29T20:32:43.988Z,31.25
2022-11-29T20:36:08.076Z,29.77
2022-11-29T20:39:39.978Z,26.63
2022-11-29T20:46:03.343Z,37.17
2022-11-29T20:49:16.139Z,33.60
2022-11-29T20:52:58.516Z,33.95
2022-11-29T20:56:08.388Z,28.80
2022-11-29T20:59:18.565Z,29.77
2022-11-29T21:02:27.121Z,34.03
2022-11-29T21:05:35.308Z,36.40
2022-11-29T21:08:44.257Z,32.38
2022-11-29T21:11:52.198Z,37.00
2022-11-29T21:15:01.202Z,25.13
2022-11-29T21:18:17.943Z,25.67
2022-11-29T21:21:36.987Z,27.40
2022-11-29T21:25:10.069Z,34.28
2022-11-29T21:28:18.780Z,34.50
2022-11-29T21:31:28.917Z,31.40
2022-11-29T21:34:37.947Z,35.13
2022-11-29T21:37:48.329Z,35.38
2022-11-29T21:40:56.967Z,34.38
2022-11-29T21:44:07.412Z,36.17
2022-11-29T21:47:17.175Z,35.30
2022-11-29T21:50:27.205Z,34.42
2022-11-29T21:53:38.600Z,39.55
2022-11-29T21:56:47.478Z,36.67
2022-11-29T21:59:56.697Z,33.40
2022-11-29T22:03:05.469Z,32.17
2022-11-29T22:06:21.643Z,33.30
2022-11-29T22:09:32.208Z,32.28
2022-11-29T22:12:49.341Z,29.17
2022-11-29T22:16:11.770Z,28.70
2022-11-29T22:19:25.660Z,22.33
2022-11-29T22:22:35.913Z,25.38
2022-11-29T22:25:45.041Z,22.33
2022-11-29T22:28:54.082Z,20.80
2022-11-29T22:32:03.309Z,27.08
2022-11-29T22:35:13.375Z,31.63
2022-11-29T22:38:22.663Z,24.35
2022-11-29T22:41:32.003Z,25.13
2022-11-29T22:44:40.418Z,25.65
2022-11-29T22:47:49.891Z,29.48
2022-11-29T22:51:08.011Z,34.95
2022-11-29T22:54:18.886Z,36.10
2022-11-29T22:57:27.882Z,31.13
2022-11-29T23:00:38.931Z,34.97
2022-11-29T23:03:52.781Z,28.10
2022-11-29T23:07:01.125Z,35.63
2022-11-29T23:10:09.700Z,39.25
2022-11-29T23:13:16.970Z,37.58
2022-11-29T23:16:29.131Z,27.90
2022-11-29T23:19:37.532Z,27.03
2022-11-29T23:22:46.672Z,27.42
2022-11-29T23:25:56.131Z,24.27
2022-11-29T23:29:05.078Z,32.38
2022-11-29T23:32:13.735Z,28.55
2022-11-29T23:35:22.243Z,28.65
2022-11-29T23:38:29.741Z,29.10
2022-11-29T23:41:37.868Z,30.92
2022-11-29T23:44:45.767Z,25.00
2022-11-29T23:47:53.714Z,23.50
2022-11-29T23:51:01.068Z,21.30
2022-11-29T23:54:08.643Z,23.42
2022-11-29T23:57:17.110Z,24.05
